sensor_id;sensor_type;location;lat;lon;timestamp;pressure;altitude;pressure_sealevel;temperature;humidity
77881;BME280;67077;50.298;18.996;2023-03-23T00:01:07;97501.67;;;9.75;65.94
77881;BME280;67077;50.298;18.996;2023-03-23T00:03:37;97499.83;;;9.68;66.12
77881;BME280;67077;50.298;18.996;2023-03-23T00:06:03;97495.70;;;9.64;66.39
77881;BME280;67077;50.298;18.996;2023-03-23T00:08:36;97494.50;;;9.64;66.51
77881;BME280;67077;50.298;18.996;2023-03-23T00:11:18;97491.34;;;9.64;66.60
77881;BME280;67077;50.298;18.996;2023-03-23T00:13:47;97486.89;;;9.61;66.80
77881;BME280;67077;50.298;18.996;2023-03-23T00:16:14;97489.14;;;9.58;66.91
77881;BME280;67077;50.298;18.996;2023-03-23T00:18:48;97487.27;;;9.55;66.93
77881;BME280;67077;50.298;18.996;2023-03-23T00:21:20;97488.96;;;9.53;67.12
77881;BME280;67077;50.298;18.996;2023-03-23T00:23:47;97489.45;;;9.51;67.17
77881;BME280;67077;50.298;18.996;2023-03-23T00:26:14;97485.44;;;9.51;67.27
77881;BME280;67077;50.298;18.996;2023-03-23T00:28:40;97486.65;;;9.52;67.21
77881;BME280;67077;50.298;18.996;2023-03-23T00:31:09;97484.52;;;9.57;67.21
77881;BME280;67077;50.298;18.996;2023-03-23T00:33:36;97483.84;;;9.60;67.12
77881;BME280;67077;50.298;18.996;2023-03-23T00:36:11;97483.08;;;9.62;67.09
77881;BME280;67077;50.298;18.996;2023-03-23T00:39:03;97485.33;;;9.61;67.05
77881;BME280;67077;50.298;18.996;2023-03-23T00:41:30;97486.20;;;9.60;67.08
77881;BME280;67077;50.298;18.996;2023-03-23T00:43:59;97482.42;;;9.57;67.06
77881;BME280;67077;50.298;18.996;2023-03-23T00:46:29;97483.05;;;9.54;67.05
77881;BME280;67077;50.298;18.996;2023-03-23T00:48:56;97487.31;;;9.53;67.12
77881;BME280;67077;50.298;18.996;2023-03-23T00:51:23;97484.19;;;9.50;67.18
77881;BME280;67077;50.298;18.996;2023-03-23T00:53:50;97481.59;;;9.52;67.18
77881;BME280;67077;50.298;18.996;2023-03-23T00:56:18;97475.71;;;9.54;67.32
77881;BME280;67077;50.298;18.996;2023-03-23T00:58:44;97468.38;;;9.56;67.27
77881;BME280;67077;50.298;18.996;2023-03-23T01:01:11;97467.90;;;9.57;67.33
77881;BME280;67077;50.298;18.996;2023-03-23T01:03:38;97466.21;;;9.56;67.36
77881;BME280;67077;50.298;18.996;2023-03-23T01:06:09;97461.23;;;9.58;67.43
77881;BME280;67077;50.298;18.996;2023-03-23T01:08:40;97458.51;;;9.61;67.35
77881;BME280;67077;50.298;18.996;2023-03-23T01:11:16;97459.86;;;9.65;67.33
77881;BME280;67077;50.298;18.996;2023-03-23T01:13:43;97454.19;;;9.71;67.24
77881;BME280;67077;50.298;18.996;2023-03-23T01:16:10;97453.23;;;9.74;67.14
77881;BME280;67077;50.298;18.996;2023-03-23T01:18:37;97449.05;;;9.75;66.98
77881;BME280;67077;50.298;18.996;2023-03-23T01:21:11;97451.70;;;9.75;67.02
77881;BME280;67077;50.298;18.996;2023-03-23T01:23:39;97453.91;;;9.75;66.97
77881;BME280;67077;50.298;18.996;2023-03-23T01:26:07;97455.63;;;9.75;66.94
77881;BME280;67077;50.298;18.996;2023-03-23T01:28:36;97451.91;;;9.75;66.97
77881;BME280;67077;50.298;18.996;2023-03-23T01:31:04;97456.41;;;9.77;66.85
77881;BME280;67077;50.298;18.996;2023-03-23T01:33:32;97454.16;;;9.78;66.76
77881;BME280;67077;50.298;18.996;2023-03-23T01:36:04;97449.67;;;9.78;66.78
77881;BME280;67077;50.298;18.996;2023-03-23T01:38:33;97453.23;;;9.78;66.76
77881;BME280;67077;50.298;18.996;2023-03-23T01:41:02;97450.82;;;9.79;66.91
77881;BME280;67077;50.298;18.996;2023-03-23T01:43:29;97454.86;;;9.82;66.81
77881;BME280;67077;50.298;18.996;2023-03-23T01:45:56;97454.29;;;9.87;66.70
77881;BME280;67077;50.298;18.996;2023-03-23T01:48:23;97452.18;;;9.91;66.49
77881;BME280;67077;50.298;18.996;2023-03-23T01:50:54;97451.41;;;9.93;66.43
77881;BME280;67077;50.298;18.996;2023-03-23T01:53:22;97450.33;;;9.93;66.45
77881;BME280;67077;50.298;18.996;2023-03-23T01:55:53;97448.69;;;9.92;66.38
77881;BME280;67077;50.298;18.996;2023-03-23T01:58:23;97447.25;;;9.91;66.35
77881;BME280;67077;50.298;18.996;2023-03-23T02:00:55;97444.11;;;9.90;66.43
77881;BME280;67077;50.298;18.996;2023-03-23T02:03:25;97439.02;;;9.92;66.39
77881;BME280;67077;50.298;18.996;2023-03-23T02:05:53;97436.02;;;9.95;66.37
77881;BME280;67077;50.298;18.996;2023-03-23T02:08:21;97435.46;;;9.97;66.29
77881;BME280;67077;50.298;18.996;2023-03-23T02:10:49;97431.14;;;9.97;66.21
77881;BME280;67077;50.298;18.996;2023-03-23T02:13:16;97433.02;;;9.95;66.21
77881;BME280;67077;50.298;18.996;2023-03-23T02:16:07;97428.27;;;9.94;66.20
77881;BME280;67077;50.298;18.996;2023-03-23T02:18:53;97432.63;;;9.91;66.23
77881;BME280;67077;50.298;18.996;2023-03-23T02:21:50;97431.32;;;9.88;66.31
77881;BME280;67077;50.298;18.996;2023-03-23T02:30:20;97427.55;;;9.86;66.34
77881;BME280;67077;50.298;18.996;2023-03-23T02:35:50;97421.59;;;9.79;66.40
77881;BME280;67077;50.298;18.996;2023-03-23T02:38:26;97419.16;;;9.75;66.55
77881;BME280;67077;50.298;18.996;2023-03-23T02:40:59;97419.67;;;9.72;66.57
77881;BME280;67077;50.298;18.996;2023-03-23T02:43:31;97418.27;;;9.72;66.62
77881;BME280;67077;50.298;18.996;2023-03-23T02:46:00;97412.47;;;9.75;66.55
77881;BME280;67077;50.298;18.996;2023-03-23T02:48:30;97412.21;;;9.78;66.44
77881;BME280;67077;50.298;18.996;2023-03-23T02:50:57;97410.06;;;9.78;66.36
77881;BME280;67077;50.298;18.996;2023-03-23T02:53:28;97409.66;;;9.77;66.37
77881;BME280;67077;50.298;18.996;2023-03-23T02:55:57;97413.25;;;9.76;66.36
77881;BME280;67077;50.298;18.996;2023-03-23T02:58:24;97414.36;;;9.74;66.45
77881;BME280;67077;50.298;18.996;2023-03-23T03:00:51;97416.71;;;9.73;66.42
77881;BME280;67077;50.298;18.996;2023-03-23T03:03:26;97412.73;;;9.70;66.50
77881;BME280;67077;50.298;18.996;2023-03-23T03:08:45;97409.88;;;9.69;66.44
77881;BME280;67077;50.298;18.996;2023-03-23T03:11:16;97410.52;;;9.73;66.44
77881;BME280;67077;50.298;18.996;2023-03-23T03:13:55;97396.98;;;9.76;66.37
77881;BME280;67077;50.298;18.996;2023-03-23T03:16:33;97394.86;;;9.75;66.36
77881;BME280;67077;50.298;18.996;2023-03-23T03:19:19;97393.91;;;9.73;66.33
77881;BME280;67077;50.298;18.996;2023-03-23T03:21:49;97393.50;;;9.70;66.39
77881;BME280;67077;50.298;18.996;2023-03-23T03:24:18;97391.48;;;9.67;66.46
77881;BME280;67077;50.298;18.996;2023-03-23T03:26:48;97386.30;;;9.64;66.43
77881;BME280;67077;50.298;18.996;2023-03-23T03:29:18;97391.56;;;9.63;66.56
77881;BME280;67077;50.298;18.996;2023-03-23T03:31:48;97386.55;;;9.63;66.61
77881;BME280;67077;50.298;18.996;2023-03-23T03:34:16;97390.86;;;9.66;66.50
77881;BME280;67077;50.298;18.996;2023-03-23T03:36:45;97389.70;;;9.69;66.44
77881;BME280;67077;50.298;18.996;2023-03-23T03:39:14;97389.75;;;9.69;66.46
77881;BME280;67077;50.298;18.996;2023-03-23T03:41:42;97388.80;;;9.68;66.35
77881;BME280;67077;50.298;18.996;2023-03-23T03:44:09;97389.81;;;9.67;66.44
77881;BME280;67077;50.298;18.996;2023-03-23T03:46:36;97394.36;;;9.66;66.48
77881;BME280;67077;50.298;18.996;2023-03-23T03:49:06;97395.25;;;9.63;66.49
77881;BME280;67077;50.298;18.996;2023-03-23T03:51:34;97395.92;;;9.62;66.54
77881;BME280;67077;50.298;18.996;2023-03-23T03:54:02;97397.27;;;9.64;66.53
77881;BME280;67077;50.298;18.996;2023-03-23T03:56:28;97400.01;;;9.69;66.43
77881;BME280;67077;50.298;18.996;2023-03-23T03:58:55;97404.32;;;9.71;66.35
77881;BME280;67077;50.298;18.996;2023-03-23T04:01:22;97401.90;;;9.72;66.25
77881;BME280;67077;50.298;18.996;2023-03-23T04:03:49;97403.52;;;9.72;66.27
77881;BME280;67077;50.298;18.996;2023-03-23T04:06:17;97399.48;;;9.70;66.25
77881;BME280;67077;50.298;18.996;2023-03-23T04:08:44;97401.22;;;9.68;66.26
77881;BME280;67077;50.298;18.996;2023-03-23T04:11:13;97402.83;;;9.66;66.27
77881;BME280;67077;50.298;18.996;2023-03-23T04:13:40;97404.00;;;9.64;66.21
77881;BME280;67077;50.298;18.996;2023-03-23T04:16:07;97403.30;;;9.61;66.32
77881;BME280;67077;50.298;18.996;2023-03-23T04:18:35;97401.67;;;9.61;66.25
77881;BME280;67077;50.298;18.996;2023-03-23T04:21:02;97404.54;;;9.64;66.26
77881;BME280;67077;50.298;18.996;2023-03-23T04:23:31;97399.27;;;9.64;66.11
77881;BME280;67077;50.298;18.996;2023-03-23T04:26:00;97394.61;;;9.62;66.15
77881;BME280;67077;50.298;18.996;2023-03-23T04:28:26;97391.75;;;9.59;66.18
77881;BME280;67077;50.298;18.996;2023-03-23T04:30:54;97389.52;;;9.54;66.28
77881;BME280;67077;50.298;18.996;2023-03-23T04:33:23;97390.10;;;9.49;66.28
77881;BME280;67077;50.298;18.996;2023-03-23T04:35:52;97393.15;;;9.45;66.45
77881;BME280;67077;50.298;18.996;2023-03-23T04:38:20;97392.39;;;9.40;66.50
77881;BME280;67077;50.298;18.996;2023-03-23T04:40:48;97387.34;;;9.39;66.56
77881;BME280;67077;50.298;18.996;2023-03-23T04:43:22;97384.67;;;9.43;66.59
77881;BME280;67077;50.298;18.996;2023-03-23T04:45:55;97387.29;;;9.45;66.55
77881;BME280;67077;50.298;18.996;2023-03-23T04:48:26;97391.64;;;9.45;66.49
77881;BME280;67077;50.298;18.996;2023-03-23T04:50:53;97388.88;;;9.44;66.60
77881;BME280;67077;50.298;18.996;2023-03-23T04:53:20;97391.15;;;9.42;66.55
77881;BME280;67077;50.298;18.996;2023-03-23T04:55:48;97395.14;;;9.40;66.56
77881;BME280;67077;50.298;18.996;2023-03-23T04:58:16;97398.52;;;9.39;66.61
77881;BME280;67077;50.298;18.996;2023-03-23T05:00:43;97397.50;;;9.37;66.61
77881;BME280;67077;50.298;18.996;2023-03-23T05:03:10;97395.93;;;9.37;66.69
77881;BME280;67077;50.298;18.996;2023-03-23T05:05:37;97397.92;;;9.42;66.60
77881;BME280;67077;50.298;18.996;2023-03-23T05:08:04;97397.59;;;9.45;66.46
77881;BME280;67077;50.298;18.996;2023-03-23T05:10:30;97400.28;;;9.47;66.38
77881;BME280;67077;50.298;18.996;2023-03-23T05:12:57;97398.36;;;9.49;66.37
77881;BME280;67077;50.298;18.996;2023-03-23T05:15:23;97392.04;;;9.51;66.39
77881;BME280;67077;50.298;18.996;2023-03-23T05:17:53;97388.66;;;9.52;66.25
77881;BME280;67077;50.298;18.996;2023-03-23T05:20:20;97388.41;;;9.55;66.22
77881;BME280;67077;50.298;18.996;2023-03-23T05:22:49;97389.57;;;9.57;66.12
77881;BME280;67077;50.298;18.996;2023-03-23T05:25:17;97388.02;;;9.65;65.94
77881;BME280;67077;50.298;18.996;2023-03-23T05:27:49;97389.70;;;9.74;65.75
77881;BME280;67077;50.298;18.996;2023-03-23T05:30:20;97398.59;;;9.83;65.47
77881;BME280;67077;50.298;18.996;2023-03-23T05:32:48;97399.66;;;9.90;65.28
77881;BME280;67077;50.298;18.996;2023-03-23T05:35:18;97402.48;;;9.96;65.21
77881;BME280;67077;50.298;18.996;2023-03-23T05:37:45;97399.11;;;10.02;65.06
77881;BME280;67077;50.298;18.996;2023-03-23T05:40:13;97390.35;;;10.08;64.78
77881;BME280;67077;50.298;18.996;2023-03-23T05:42:40;97392.20;;;10.15;64.53
77881;BME280;67077;50.298;18.996;2023-03-23T05:45:09;97392.39;;;10.23;64.27
77881;BME280;67077;50.298;18.996;2023-03-23T05:47:38;97397.63;;;10.30;64.09
77881;BME280;67077;50.298;18.996;2023-03-23T05:50:06;97397.91;;;10.40;63.85
77881;BME280;67077;50.298;18.996;2023-03-23T05:52:35;97398.15;;;10.51;63.56
77881;BME280;67077;50.298;18.996;2023-03-23T05:55:03;97396.02;;;10.59;63.32
77881;BME280;67077;50.298;18.996;2023-03-23T05:57:31;97404.65;;;10.66;63.20
77881;BME280;67077;50.298;18.996;2023-03-23T05:59:58;97411.27;;;10.72;62.84
77881;BME280;67077;50.298;18.996;2023-03-23T06:02:25;97403.87;;;10.76;62.75
77881;BME280;67077;50.298;18.996;2023-03-23T06:04:55;97401.81;;;10.82;62.58
77881;BME280;67077;50.298;18.996;2023-03-23T06:07:24;97400.70;;;10.88;62.39
77881;BME280;67077;50.298;18.996;2023-03-23T06:09:54;97396.98;;;10.93;62.14
77881;BME280;67077;50.298;18.996;2023-03-23T06:12:20;97397.95;;;10.98;61.97
77881;BME280;67077;50.298;18.996;2023-03-23T06:14:48;97397.48;;;11.03;61.95
77881;BME280;67077;50.298;18.996;2023-03-23T06:17:15;97396.23;;;11.09;61.73
77881;BME280;67077;50.298;18.996;2023-03-23T06:19:44;97390.85;;;11.14;61.55
77881;BME280;67077;50.298;18.996;2023-03-23T06:22:13;97389.92;;;11.19;61.46
77881;BME280;67077;50.298;18.996;2023-03-23T06:24:40;97387.88;;;11.23;61.28
77881;BME280;67077;50.298;18.996;2023-03-23T06:27:07;97390.42;;;11.28;61.05
77881;BME280;67077;50.298;18.996;2023-03-23T06:29:36;97393.95;;;11.33;60.93
77881;BME280;67077;50.298;18.996;2023-03-23T06:32:04;97391.66;;;11.37;60.99
77881;BME280;67077;50.298;18.996;2023-03-23T06:34:31;97394.20;;;11.43;60.74
77881;BME280;67077;50.298;18.996;2023-03-23T06:37:01;97397.42;;;11.48;60.70
77881;BME280;67077;50.298;18.996;2023-03-23T06:39:28;97394.95;;;11.54;60.49
77881;BME280;67077;50.298;18.996;2023-03-23T06:41:56;97394.46;;;11.60;60.18
77881;BME280;67077;50.298;18.996;2023-03-23T06:44:25;97392.67;;;11.67;59.91
77881;BME280;67077;50.298;18.996;2023-03-23T06:46:52;97391.37;;;11.74;59.62
77881;BME280;67077;50.298;18.996;2023-03-23T06:49:18;97393.79;;;11.81;59.41
77881;BME280;67077;50.298;18.996;2023-03-23T06:51:45;97399.45;;;11.88;59.10
77881;BME280;67077;50.298;18.996;2023-03-23T06:54:12;97403.15;;;11.95;58.89
77881;BME280;67077;50.298;18.996;2023-03-23T06:56:38;97406.42;;;12.04;58.76
77881;BME280;67077;50.298;18.996;2023-03-23T06:59:05;97405.42;;;12.11;58.54
77881;BME280;67077;50.298;18.996;2023-03-23T07:01:31;97399.82;;;12.16;58.03
77881;BME280;67077;50.298;18.996;2023-03-23T07:03:58;97403.53;;;12.25;57.85
77881;BME280;67077;50.298;18.996;2023-03-23T07:06:25;97401.97;;;12.32;57.68
77881;BME280;67077;50.298;18.996;2023-03-23T07:08:52;97400.16;;;12.38;57.40
77881;BME280;67077;50.298;18.996;2023-03-23T07:11:19;97396.14;;;12.44;57.14
77881;BME280;67077;50.298;18.996;2023-03-23T07:13:46;97401.89;;;12.48;57.02
77881;BME280;67077;50.298;18.996;2023-03-23T07:16:12;97404.73;;;12.53;56.65
77881;BME280;67077;50.298;18.996;2023-03-23T07:18:39;97401.20;;;12.53;56.14
77881;BME280;67077;50.298;18.996;2023-03-23T07:21:06;97407.40;;;12.54;56.22
77881;BME280;67077;50.298;18.996;2023-03-23T07:23:33;97407.40;;;12.54;56.18
77881;BME280;67077;50.298;18.996;2023-03-23T07:25:59;97407.05;;;12.53;55.98
77881;BME280;67077;50.298;18.996;2023-03-23T07:28:26;97406.96;;;12.53;56.21
77881;BME280;67077;50.298;18.996;2023-03-23T07:30:53;97408.06;;;12.54;55.94
77881;BME280;67077;50.298;18.996;2023-03-23T07:33:20;97409.57;;;12.57;55.99
77881;BME280;67077;50.298;18.996;2023-03-23T07:35:47;97408.98;;;12.62;55.88
77881;BME280;67077;50.298;18.996;2023-03-23T07:38:14;97410.30;;;12.67;55.87
77881;BME280;67077;50.298;18.996;2023-03-23T07:40:41;97410.42;;;12.75;55.55
77881;BME280;67077;50.298;18.996;2023-03-23T07:43:08;97416.64;;;12.81;55.61
77881;BME280;67077;50.298;18.996;2023-03-23T07:45:34;97419.02;;;12.88;55.39
77881;BME280;67077;50.298;18.996;2023-03-23T07:48:01;97421.80;;;12.94;55.17
77881;BME280;67077;50.298;18.996;2023-03-23T07:50:28;97421.50;;;13.00;55.10
77881;BME280;67077;50.298;18.996;2023-03-23T07:52:57;97415.02;;;13.05;54.77
77881;BME280;67077;50.298;18.996;2023-03-23T07:55:24;97416.11;;;13.09;54.42
77881;BME280;67077;50.298;18.996;2023-03-23T07:57:52;97409.75;;;13.14;54.32
77881;BME280;67077;50.298;18.996;2023-03-23T08:00:21;97407.47;;;13.20;54.18
77881;BME280;67077;50.298;18.996;2023-03-23T08:02:55;97407.61;;;13.26;54.03
77881;BME280;67077;50.298;18.996;2023-03-23T08:05:23;97403.27;;;13.31;53.71
77881;BME280;67077;50.298;18.996;2023-03-23T08:07:53;97397.27;;;13.36;53.63
77881;BME280;67077;50.298;18.996;2023-03-23T08:10:23;97399.33;;;13.42;53.65
77881;BME280;67077;50.298;18.996;2023-03-23T08:12:54;97399.67;;;13.49;53.49
77881;BME280;67077;50.298;18.996;2023-03-23T08:15:22;97395.89;;;13.54;53.28
77881;BME280;67077;50.298;18.996;2023-03-23T08:17:49;97401.98;;;13.56;53.06
77881;BME280;67077;50.298;18.996;2023-03-23T08:20:18;97401.31;;;13.59;53.05
77881;BME280;67077;50.298;18.996;2023-03-23T08:22:50;97397.95;;;13.63;52.84
77881;BME280;67077;50.298;18.996;2023-03-23T08:25:19;97393.38;;;13.73;52.66
77881;BME280;67077;50.298;18.996;2023-03-23T08:27:46;97391.31;;;13.90;52.36
77881;BME280;67077;50.298;18.996;2023-03-23T08:30:16;97389.20;;;14.10;52.01
77881;BME280;67077;50.298;18.996;2023-03-23T08:32:43;97386.97;;;14.27;50.91
77881;BME280;67077;50.298;18.996;2023-03-23T08:35:11;97385.27;;;14.40;50.71
77881;BME280;67077;50.298;18.996;2023-03-23T08:37:38;97383.91;;;14.53;50.33
77881;BME280;67077;50.298;18.996;2023-03-23T08:40:05;97383.79;;;14.66;50.36
77881;BME280;67077;50.298;18.996;2023-03-23T08:42:35;97378.36;;;14.75;49.87
77881;BME280;67077;50.298;18.996;2023-03-23T08:45:03;97384.91;;;14.82;49.64
77881;BME280;67077;50.298;18.996;2023-03-23T08:47:30;97383.29;;;14.91;49.41
77881;BME280;67077;50.298;18.996;2023-03-23T08:49:58;97388.61;;;15.01;49.05
77881;BME280;67077;50.298;18.996;2023-03-23T08:52:26;97387.05;;;15.15;48.91
77881;BME280;67077;50.298;18.996;2023-03-23T08:54:54;97385.98;;;15.32;48.45
77881;BME280;67077;50.298;18.996;2023-03-23T08:57:21;97381.73;;;15.49;47.81
77881;BME280;67077;50.298;18.996;2023-03-23T08:59:49;97369.88;;;15.64;47.50
77881;BME280;67077;50.298;18.996;2023-03-23T09:02:16;97376.23;;;15.78;47.10
77881;BME280;67077;50.298;18.996;2023-03-23T09:04:44;97377.44;;;15.88;46.95
77881;BME280;67077;50.298;18.996;2023-03-23T09:07:12;97378.45;;;15.97;47.09
77881;BME280;67077;50.298;18.996;2023-03-23T09:09:41;97376.80;;;16.06;47.23
77881;BME280;67077;50.298;18.996;2023-03-23T09:12:09;97382.33;;;16.15;46.92
77881;BME280;67077;50.298;18.996;2023-03-23T09:14:38;97375.98;;;16.19;46.14
77881;BME280;67077;50.298;18.996;2023-03-23T09:17:05;97376.98;;;16.19;46.28
77881;BME280;67077;50.298;18.996;2023-03-23T09:19:34;97376.98;;;16.22;46.20
77881;BME280;67077;50.298;18.996;2023-03-23T09:22:01;97373.50;;;16.25;45.49
77881;BME280;67077;50.298;18.996;2023-03-23T09:24:29;97375.90;;;16.31;46.05
77881;BME280;67077;50.298;18.996;2023-03-23T09:26:56;97366.66;;;16.37;45.54
77881;BME280;67077;50.298;18.996;2023-03-23T09:29:26;97379.50;;;16.40;45.29
77881;BME280;67077;50.298;18.996;2023-03-23T09:31:54;97371.33;;;16.39;44.90
77881;BME280;67077;50.298;18.996;2023-03-23T09:34:21;97376.00;;;16.40;44.47
77881;BME280;67077;50.298;18.996;2023-03-23T09:36:54;97377.58;;;16.38;44.60
77881;BME280;67077;50.298;18.996;2023-03-23T09:39:38;97388.10;;;16.38;44.68
77881;BME280;67077;50.298;18.996;2023-03-23T09:45:19;97381.73;;;16.42;45.12
77881;BME280;67077;50.298;18.996;2023-03-23T09:50:40;97374.52;;;16.56;44.99
77881;BME280;67077;50.298;18.996;2023-03-23T09:53:30;97375.71;;;16.66;44.68
77881;BME280;67077;50.298;18.996;2023-03-23T09:56:03;97368.77;;;16.78;44.38
77881;BME280;67077;50.298;18.996;2023-03-23T10:01:32;97358.67;;;16.96;43.86
77881;BME280;67077;50.298;18.996;2023-03-23T10:04:38;97360.36;;;17.04;43.35
77881;BME280;67077;50.298;18.996;2023-03-23T10:09:39;97352.66;;;17.14;42.58
77881;BME280;67077;50.298;18.996;2023-03-23T10:12:32;97354.03;;;17.17;42.14
77881;BME280;67077;50.298;18.996;2023-03-23T10:15:16;97347.55;;;17.22;41.49
77881;BME280;67077;50.298;18.996;2023-03-23T10:18:27;97344.58;;;17.27;41.76
77881;BME280;67077;50.298;18.996;2023-03-23T10:20:59;97339.31;;;17.41;41.45
77881;BME280;67077;50.298;18.996;2023-03-23T10:23:40;97333.20;;;17.52;40.69
77881;BME280;67077;50.298;18.996;2023-03-23T10:26:47;97332.64;;;17.64;40.48
77881;BME280;67077;50.298;18.996;2023-03-23T10:29:28;97337.58;;;17.83;39.28
77881;BME280;67077;50.298;18.996;2023-03-23T10:32:00;97333.91;;;17.90;39.15
77881;BME280;67077;50.298;18.996;2023-03-23T10:37:20;97318.75;;;17.99;38.31
77881;BME280;67077;50.298;18.996;2023-03-23T10:39:54;97312.62;;;17.92;38.16
77881;BME280;67077;50.298;18.996;2023-03-23T10:42:31;97315.61;;;17.87;37.98
77881;BME280;67077;50.298;18.996;2023-03-23T10:45:25;97323.05;;;17.79;37.61
77881;BME280;67077;50.298;18.996;2023-03-23T10:48:01;97330.88;;;17.67;38.52
77881;BME280;67077;50.298;18.996;2023-03-23T10:50:33;97333.86;;;17.58;38.52
77881;BME280;67077;50.298;18.996;2023-03-23T10:53:10;97331.69;;;17.50;38.83
77881;BME280;67077;50.298;18.996;2023-03-23T10:55:40;97338.35;;;17.40;38.82
77881;BME280;67077;50.298;18.996;2023-03-23T10:58:21;97344.52;;;17.29;39.36
77881;BME280;67077;50.298;18.996;2023-03-23T11:00:49;97334.73;;;17.20;39.66
77881;BME280;67077;50.298;18.996;2023-03-23T11:06:18;97351.70;;;17.06;40.41
77881;BME280;67077;50.298;18.996;2023-03-23T11:08:52;97362.11;;;17.02;40.95
77881;BME280;67077;50.298;18.996;2023-03-23T11:11:29;97355.23;;;16.98;40.65
77881;BME280;67077;50.298;18.996;2023-03-23T11:16:49;97360.03;;;16.80;40.90
77881;BME280;67077;50.298;18.996;2023-03-23T11:19:23;97361.11;;;16.70;41.22
77881;BME280;67077;50.298;18.996;2023-03-23T11:21:52;97345.46;;;16.65;41.60
77881;BME280;67077;50.298;18.996;2023-03-23T11:24:25;97353.55;;;16.61;41.35
77881;BME280;67077;50.298;18.996;2023-03-23T11:26:56;97353.34;;;16.57;41.56
77881;BME280;67077;50.298;18.996;2023-03-23T11:29:26;97354.75;;;16.53;41.66
77881;BME280;67077;50.298;18.996;2023-03-23T11:32:04;97356.29;;;16.52;41.90
77881;BME280;67077;50.298;18.996;2023-03-23T11:34:45;97351.16;;;16.51;41.88
77881;BME280;67077;50.298;18.996;2023-03-23T11:37:15;97349.80;;;16.48;41.91
77881;BME280;67077;50.298;18.996;2023-03-23T11:42:26;97348.98;;;16.46;42.00
77881;BME280;67077;50.298;18.996;2023-03-23T11:51:28;97343.48;;;16.45;42.02
77881;BME280;67077;50.298;18.996;2023-03-23T11:54:16;97346.02;;;16.52;42.31
77881;BME280;67077;50.298;18.996;2023-03-23T11:56:46;97347.43;;;16.63;42.41
77881;BME280;67077;50.298;18.996;2023-03-23T11:59:17;97343.89;;;16.75;41.96
77881;BME280;67077;50.298;18.996;2023-03-23T12:05:26;97337.52;;;17.03;41.57
77881;BME280;67077;50.298;18.996;2023-03-23T12:08:05;97334.77;;;17.20;41.59
77881;BME280;67077;50.298;18.996;2023-03-23T12:11:05;97339.05;;;17.40;41.37
77881;BME280;67077;50.298;18.996;2023-03-23T12:22:03;97331.95;;;17.73;40.45
77881;BME280;67077;50.298;18.996;2023-03-23T12:24:45;97326.54;;;17.81;40.46
77881;BME280;67077;50.298;18.996;2023-03-23T12:32:45;97314.91;;;17.95;39.72
77881;BME280;67077;50.298;18.996;2023-03-23T12:49:30;97317.55;;;17.66;40.62
77881;BME280;67077;50.298;18.996;2023-03-23T12:54:54;97314.21;;;17.48;40.91
77881;BME280;67077;50.298;18.996;2023-03-23T13:03:10;97322.18;;;17.38;41.44
77881;BME280;67077;50.298;18.996;2023-03-23T13:05:46;97330.98;;;17.40;41.77
77881;BME280;67077;50.298;18.996;2023-03-23T13:08:33;97325.03;;;17.49;41.93
77881;BME280;67077;50.298;18.996;2023-03-23T13:11:04;97324.45;;;17.53;41.50
77881;BME280;67077;50.298;18.996;2023-03-23T13:13:47;97321.23;;;17.52;41.57
77881;BME280;67077;50.298;18.996;2023-03-23T13:16:32;97321.23;;;17.51;41.80
77881;BME280;67077;50.298;18.996;2023-03-23T13:19:33;97317.98;;;17.49;41.44
77881;BME280;67077;50.298;18.996;2023-03-23T13:22:05;97311.20;;;17.44;41.19
77881;BME280;67077;50.298;18.996;2023-03-23T13:24:37;97312.80;;;17.43;41.42
77881;BME280;67077;50.298;18.996;2023-03-23T13:27:08;97306.69;;;17.42;41.29
77881;BME280;67077;50.298;18.996;2023-03-23T13:29:44;97308.63;;;17.39;41.68
77881;BME280;67077;50.298;18.996;2023-03-23T13:32:18;97306.70;;;17.41;41.83
77881;BME280;67077;50.298;18.996;2023-03-23T13:34:47;97300.50;;;17.45;41.48
77881;BME280;67077;50.298;18.996;2023-03-23T13:37:26;97293.20;;;17.52;41.32
77881;BME280;67077;50.298;18.996;2023-03-23T13:42:57;97287.09;;;17.68;41.08
77881;BME280;67077;50.298;18.996;2023-03-23T13:53:23;97282.36;;;17.87;40.60
77881;BME280;67077;50.298;18.996;2023-03-23T13:56:03;97279.98;;;17.92;40.59
77881;BME280;67077;50.298;18.996;2023-03-23T13:58:31;97279.44;;;17.93;40.40
77881;BME280;67077;50.298;18.996;2023-03-23T14:01:02;97284.42;;;17.93;40.31
77881;BME280;67077;50.298;18.996;2023-03-23T14:03:38;97278.02;;;17.90;40.13
77881;BME280;67077;50.298;18.996;2023-03-23T14:06:11;97280.50;;;17.87;40.35
77881;BME280;67077;50.298;18.996;2023-03-23T14:08:42;97284.30;;;17.85;40.24
77881;BME280;67077;50.298;18.996;2023-03-23T14:13:43;97284.79;;;17.80;40.14
77881;BME280;67077;50.298;18.996;2023-03-23T14:16:22;97285.57;;;17.77;40.19
77881;BME280;67077;50.298;18.996;2023-03-23T14:18:55;97286.27;;;17.76;40.26
77881;BME280;67077;50.298;18.996;2023-03-23T14:21:35;97288.42;;;17.73;40.30
77881;BME280;67077;50.298;18.996;2023-03-23T14:24:10;97293.73;;;17.68;40.55
77881;BME280;67077;50.298;18.996;2023-03-23T14:26:37;97298.05;;;17.63;40.74
77881;BME280;67077;50.298;18.996;2023-03-23T14:29:05;97296.04;;;17.58;40.72
77881;BME280;67077;50.298;18.996;2023-03-23T14:31:32;97287.05;;;17.54;40.75
77881;BME280;67077;50.298;18.996;2023-03-23T14:34:03;97283.00;;;17.50;40.68
77881;BME280;67077;50.298;18.996;2023-03-23T14:36:31;97288.52;;;17.48;40.93
77881;BME280;67077;50.298;18.996;2023-03-23T14:39:25;97282.70;;;17.47;40.81
77881;BME280;67077;50.298;18.996;2023-03-23T14:41:54;97283.38;;;17.45;40.85
77881;BME280;67077;50.298;18.996;2023-03-23T14:44:26;97279.84;;;17.44;40.97
77881;BME280;67077;50.298;18.996;2023-03-23T14:46:55;97277.66;;;17.47;41.00
77881;BME280;67077;50.298;18.996;2023-03-23T14:49:34;97277.93;;;17.48;40.64